createdAt,value
2022-10-21T00:01:05.011Z,8.72
2022-10-21T00:03:32.839Z,8.59
2022-10-21T00:06:02.474Z,8.62
2022-10-21T00:08:30.150Z,8.67
2022-10-21T00:11:00.330Z,8.64
2022-10-21T00:13:30.027Z,8.72
2022-10-21T00:16:02.041Z,8.76
2022-10-21T00:18:31.452Z,8.64
2022-10-21T00:20:59.627Z,8.69
2022-10-21T00:23:27.518Z,8.69
2022-10-21T00:25:59.232Z,8.64
2022-10-21T00:28:27.699Z,8.69
2022-10-21T00:30:57.936Z,8.56
2022-10-21T00:33:28.012Z,8.64
2022-10-21T00:35:59.245Z,8.75
2022-10-21T00:38:26.851Z,8.62
2022-10-21T00:40:55.437Z,8.64
2022-10-21T00:43:23.921Z,8.70
2022-10-21T00:45:57.133Z,8.56
2022-10-21T00:48:34.561Z,8.56
2022-10-21T00:51:04.400Z,8.62
2022-10-21T00:53:34.281Z,8.54
2022-10-21T00:56:09.858Z,8.55
2022-10-21T00:58:40.150Z,8.59
2022-10-21T01:01:08.824Z,8.54
2022-10-21T01:03:36.850Z,8.53
2022-10-21T01:06:09.338Z,8.55
2022-10-21T01:08:37.940Z,8.48
2022-10-21T01:11:12.327Z,8.41
2022-10-21T01:14:07.116Z,8.46
2022-10-21T01:16:53.901Z,8.51
2022-10-21T01:20:02.026Z,8.53
2022-10-21T01:22:35.842Z,8.48
2022-10-21T01:25:41.845Z,8.49
2022-10-21T01:28:34.829Z,8.41
2022-10-21T01:31:13.126Z,8.48
2022-10-21T01:33:54.276Z,8.48
2022-10-21T01:36:43.697Z,8.38
2022-10-21T01:39:16.906Z,8.33
2022-10-21T01:41:53.090Z,8.32
2022-10-21T01:44:26.360Z,8.32
2022-10-21T01:47:01.255Z,8.16
2022-10-21T01:49:36.032Z,8.24
2022-10-21T01:52:05.404Z,8.16
2022-10-21T01:54:43.852Z,8.02
2022-10-21T01:57:16.168Z,8.05
2022-10-21T01:59:46.747Z,8.07
2022-10-21T02:02:16.701Z,8.06
2022-10-21T02:04:47.307Z,8.01
2022-10-21T02:07:15.279Z,8.06
2022-10-21T02:09:43.769Z,8.07
2022-10-21T02:12:12.742Z,8.03
2022-10-21T02:14:45.378Z,7.96
2022-10-21T02:17:18.873Z,8.03
2022-10-21T02:19:46.758Z,7.95
2022-10-21T02:22:20.141Z,7.90
2022-10-21T02:25:11.206Z,7.95
2022-10-21T02:27:39.710Z,7.96
2022-10-21T02:30:08.845Z,7.94
2022-10-21T02:32:57.268Z,7.91
2022-10-21T02:36:03.589Z,8.01
2022-10-21T02:38:45.271Z,8.03
2022-10-21T02:41:18.190Z,8.03
2022-10-21T02:43:53.234Z,8.07
2022-10-21T02:46:21.430Z,8.05
2022-10-21T02:48:49.881Z,7.97
2022-10-21T02:51:18.015Z,8.11
2022-10-21T02:53:45.776Z,8.18
2022-10-21T02:56:14.363Z,8.12
2022-10-21T02:58:42.369Z,8.15
2022-10-21T03:01:09.952Z,8.08
2022-10-21T03:03:38.609Z,8.10
2022-10-21T03:06:06.720Z,8.06
2022-10-21T03:08:35.170Z,8.13
2022-10-21T03:11:02.840Z,8.10
2022-10-21T03:13:32.783Z,8.10
2022-10-21T03:16:00.438Z,8.13
2022-10-21T03:18:28.009Z,8.13
2022-10-21T03:20:55.778Z,8.13
2022-10-21T03:23:23.828Z,8.08
2022-10-21T03:25:51.528Z,8.01
2022-10-21T03:28:19.081Z,7.94
2022-10-21T03:30:46.708Z,7.84
2022-10-21T03:33:14.274Z,7.87
2022-10-21T03:35:42.661Z,7.79
2022-10-21T03:38:10.379Z,7.73
2022-10-21T03:40:37.933Z,7.74
2022-10-21T03:43:06.987Z,7.69
2022-10-21T03:45:35.455Z,7.71
2022-10-21T03:48:03.057Z,7.77
2022-10-21T03:50:31.081Z,7.65
2022-10-21T03:52:59.944Z,7.61
2022-10-21T03:55:28.064Z,7.54
2022-10-21T03:57:55.902Z,7.62
2022-10-21T04:00:25.189Z,7.54
2022-10-21T04:02:54.843Z,7.56
2022-10-21T04:05:22.525Z,7.48
2022-10-21T04:07:53.129Z,7.46
2022-10-21T04:10:21.507Z,7.52
2022-10-21T04:12:49.327Z,7.52
2022-10-21T04:15:18.989Z,7.52
2022-10-21T04:17:47.280Z,7.43
2022-10-21T04:20:15.448Z,7.42
2022-10-21T04:22:43.197Z,7.48
2022-10-21T04:25:10.865Z,7.40
2022-10-21T04:27:39.166Z,7.42
2022-10-21T04:30:07.652Z,7.50
2022-10-21T04:32:35.776Z,7.48
2022-10-21T04:35:03.827Z,7.53
2022-10-21T04:37:31.470Z,7.49
2022-10-21T04:39:58.938Z,7.51
2022-10-21T04:44:54.455Z,7.46
2022-10-21T04:47:23.676Z,7.41
2022-10-21T04:49:51.501Z,7.38
2022-10-21T04:52:19.023Z,7.51
2022-10-21T04:54:47.632Z,7.48
2022-10-21T04:57:15.257Z,7.54
2022-10-21T04:59:42.758Z,7.57
2022-10-21T05:02:10.292Z,7.57
2022-10-21T05:04:38.061Z,7.66
2022-10-21T05:07:08.355Z,7.66
2022-10-21T05:09:36.204Z,7.68
2022-10-21T05:12:04.196Z,7.78
2022-10-21T05:14:31.795Z,7.81
2022-10-21T05:16:59.327Z,7.75
2022-10-21T05:19:30.978Z,7.83
2022-10-21T05:22:00.226Z,7.90
2022-10-21T05:24:28.121Z,7.88
2022-10-21T05:26:55.651Z,7.86
2022-10-21T05:29:23.204Z,7.95
2022-10-21T05:31:51.156Z,7.98
2022-10-21T05:34:19.567Z,8.04
2022-10-21T05:36:49.029Z,8.01
2022-10-21T05:39:16.593Z,8.11
2022-10-21T05:41:47.770Z,8.16
2022-10-21T05:44:16.011Z,8.28
2022-10-21T05:46:44.152Z,8.28
2022-10-21T05:49:12.992Z,8.35
2022-10-21T05:51:40.757Z,8.41
2022-10-21T05:54:08.287Z,8.65
2022-10-21T05:56:36.746Z,8.60
2022-10-21T05:59:07.840Z,8.60
2022-10-21T06:01:39.765Z,8.69
2022-10-21T06:04:08.045Z,8.77
2022-10-21T06:06:35.655Z,8.76
2022-10-21T06:09:04.558Z,8.82
2022-10-21T06:11:32.522Z,8.72
2022-10-21T06:14:00.774Z,8.68
2022-10-21T06:16:35.590Z,8.57
2022-10-21T06:19:04.160Z,8.51
2022-10-21T06:21:32.752Z,8.53
2022-10-21T06:24:00.180Z,8.53
2022-10-21T06:26:29.310Z,8.49
2022-10-21T06:28:58.544Z,8.60
2022-10-21T06:31:27.047Z,8.62
2022-10-21T06:33:54.689Z,8.62
2022-10-21T06:36:22.350Z,8.70
2022-10-21T06:38:50.261Z,8.72
2022-10-21T06:41:19.131Z,8.76
2022-10-21T06:43:46.744Z,8.87
2022-10-21T06:46:15.875Z,8.92
2022-10-21T06:48:43.958Z,8.89
2022-10-21T06:51:18.924Z,8.94
2022-10-21T06:53:52.348Z,8.97
2022-10-21T06:56:20.843Z,9.14
2022-10-21T06:58:50.073Z,9.22
2022-10-21T07:01:41.122Z,9.33
2022-10-21T07:04:16.445Z,9.45
2022-10-21T07:06:44.242Z,9.52
2022-10-21T07:09:12.816Z,9.63
2022-10-21T07:11:40.689Z,9.73
2022-10-21T07:14:08.692Z,9.73
2022-10-21T07:16:37.817Z,9.74
2022-10-21T07:19:08.910Z,9.80
2022-10-21T07:21:37.444Z,10.00
2022-10-21T07:24:06.559Z,10.04
2022-10-21T07:26:35.532Z,10.13
2022-10-21T07:29:05.136Z,10.06
2022-10-21T07:31:37.233Z,10.19
2022-10-21T07:34:09.083Z,10.25
2022-10-21T07:36:40.938Z,10.36
2022-10-21T07:39:12.882Z,10.51
2022-10-21T07:41:46.247Z,10.73
2022-10-21T07:44:14.925Z,10.74
2022-10-21T07:46:44.400Z,10.80
2022-10-21T07:49:13.270Z,10.85
2022-10-21T07:51:42.148Z,11.05
2022-10-21T07:54:09.708Z,11.01
2022-10-21T07:56:44.594Z,11.22
2022-10-21T07:59:13.446Z,11.25
2022-10-21T08:01:45.008Z,10.99
2022-10-21T08:04:17.216Z,10.90
2022-10-21T08:06:47.045Z,10.84
2022-10-21T08:09:16.346Z,10.92
2022-10-21T08:11:44.310Z,11.37
2022-10-21T08:14:14.013Z,11.27
2022-10-21T08:16:41.928Z,11.06
2022-10-21T08:19:16.667Z,11.16
2022-10-21T08:21:44.687Z,11.26
2022-10-21T08:24:12.568Z,11.16
2022-10-21T08:26:40.603Z,11.09
2022-10-21T08:29:08.836Z,11.15
2022-10-21T08:31:37.452Z,11.19
2022-10-21T08:34:05.061Z,11.17
2022-10-21T08:36:32.595Z,11.22
2022-10-21T08:39:00.601Z,11.10
2022-10-21T08:41:31.808Z,11.10
2022-10-21T08:44:21.530Z,10.91
2022-10-21T08:46:59.861Z,10.93
2022-10-21T08:50:07.603Z,10.89
2022-10-21T08:52:42.579Z,10.88
2022-10-21T08:55:28.828Z,10.92
2022-10-21T08:57:57.047Z,11.14
2022-10-21T09:00:29.388Z,11.06
2022-10-21T09:03:15.940Z,11.14
2022-10-21T09:05:56.492Z,11.00
2022-10-21T09:08:52.589Z,11.12
2022-10-21T09:11:34.455Z,11.12
2022-10-21T09:14:20.702Z,11.18
2022-10-21T09:17:26.369Z,11.30
2022-10-21T09:20:12.807Z,11.34
2022-10-21T09:23:14.711Z,11.46
2022-10-21T09:26:06.793Z,11.70
2022-10-21T09:28:35.704Z,11.62
2022-10-21T09:31:21.511Z,11.70
2022-10-21T09:33:56.690Z,11.52
2022-10-21T09:36:31.375Z,11.72
2022-10-21T09:39:10.904Z,11.80
2022-10-21T09:41:44.894Z,11.66
2022-10-21T09:44:22.584Z,11.72
2022-10-21T09:46:52.593Z,11.82
2022-10-21T09:50:06.511Z,11.88
2022-10-21T09:52:23.577Z,11.84
2022-10-21T09:54:53.621Z,11.68
2022-10-21T09:57:36.962Z,11.58
2022-10-21T10:00:08.317Z,11.60
2022-10-21T10:02:49.088Z,11.43
2022-10-21T10:05:37.180Z,11.46
2022-10-21T10:08:35.495Z,11.44
2022-10-21T10:11:09.507Z,11.28
2022-10-21T10:13:41.059Z,11.34
2022-10-21T10:16:14.100Z,11.19
2022-10-21T10:18:42.972Z,11.32
2022-10-21T10:21:13.968Z,11.31
2022-10-21T10:23:49.683Z,11.15
2022-10-21T10:26:21.274Z,11.22
2022-10-21T10:28:52.273Z,11.31
2022-10-21T10:31:33.915Z,11.37
2022-10-21T10:34:07.024Z,11.32
2022-10-21T10:36:38.825Z,11.35
2022-10-21T10:39:22.598Z,11.49
2022-10-21T10:41:52.758Z,12.08
2022-10-21T10:44:38.155Z,12.20
2022-10-21T10:47:09.426Z,12.15
2022-10-21T10:49:41.592Z,12.40
2022-10-21T10:52:13.246Z,12.33
2022-10-21T10:54:44.042Z,12.19
2022-10-21T10:57:34.211Z,11.99
2022-10-21T11:00:17.871Z,11.87
2022-10-21T11:03:00.928Z,11.88
2022-10-21T11:05:46.998Z,11.62
2022-10-21T11:08:31.998Z,11.51
2022-10-21T11:11:11.416Z,11.37
2022-10-21T11:13:42.227Z,11.30
2022-10-21T11:16:11.628Z,11.24
2022-10-21T11:18:58.624Z,11.27
2022-10-21T11:21:52.466Z,11.37
2022-10-21T11:24:45.698Z,11.32
2022-10-21T11:27:44.068Z,11.40
2022-10-21T11:30:14.075Z,11.35
2022-10-21T11:33:40.018Z,11.41
2022-10-21T11:36:25.045Z,11.40
2022-10-21T11:39:26.519Z,11.37
2022-10-21T11:42:12.619Z,11.40
2022-10-21T11:45:00.376Z,11.34
2022-10-21T11:47:43.661Z,11.18
2022-10-21T11:50:54.065Z,11.05
2022-10-21T11:53:55.962Z,11.11
2022-10-21T11:56:47.346Z,11.10
2022-10-21T11:59:21.245Z,11.10
2022-10-21T12:02:41.404Z,11.06
2022-10-21T12:05:16.406Z,11.00
2022-10-21T12:08:27.980Z,11.05
2022-10-21T12:11:13.273Z,11.16
2022-10-21T12:13:52.675Z,11.19
2022-10-21T12:16:26.084Z,11.11
2022-10-21T12:19:14.246Z,11.15
2022-10-21T12:21:45.793Z,11.30
2022-10-21T12:24:34.637Z,11.16
2022-10-21T12:27:17.428Z,11.15
2022-10-21T12:30:13.379Z,11.10
2022-10-21T12:32:42.579Z,11.03
2022-10-21T12:35:16.419Z,11.06
2022-10-21T12:37:53.995Z,11.01
2022-10-21T12:40:28.596Z,11.07
2022-10-21T12:43:02.546Z,11.16
2022-10-21T12:45:35.596Z,11.15
2022-10-21T12:48:30.548Z,11.14
2022-10-21T12:51:01.838Z,11.13
2022-10-21T12:54:06.580Z,10.99
2022-10-21T12:56:43.109Z,11.10
2022-10-21T12:59:34.305Z,10.98
2022-10-21T13:02:04.864Z,10.97
2022-10-21T13:04:32.502Z,10.92
2022-10-21T13:07:26.606Z,10.85
2022-10-21T13:09:55.079Z,10.96
2022-10-21T13:12:23.660Z,10.80
2022-10-21T13:14:58.715Z,10.94
2022-10-21T13:17:31.378Z,11.07
2022-10-21T13:20:20.633Z,11.85
2022-10-21T13:23:03.269Z,12.71
2022-10-21T13:25:36.451Z,13.73
2022-10-21T13:28:06.606Z,14.68
2022-10-21T13:30:37.708Z,14.78
2022-10-21T13:33:15.180Z,14.70
2022-10-21T13:35:50.466Z,14.95
2022-10-21T13:38:36.935Z,14.24
2022-10-21T13:41:18.497Z,14.10
2022-10-21T13:43:55.726Z,13.66
2022-10-21T13:46:43.836Z,13.17
2022-10-21T13:49:34.138Z,12.77
2022-10-21T13:52:01.642Z,12.47
2022-10-21T13:54:35.140Z,12.32
2022-10-21T13:57:08.155Z,12.24
2022-10-21T13:59:35.874Z,12.09
2022-10-21T14:02:07.179Z,11.94
2022-10-21T14:04:40.535Z,11.78
2022-10-21T14:07:18.181Z,11.74
2022-10-21T14:09:55.345Z,11.75
2022-10-21T14:12:32.709Z,11.61
2022-10-21T14:15:23.263Z,11.43
2022-10-21T14:17:58.562Z,11.27
2022-10-21T14:20:36.145Z,11.12
2022-10-21T14:23:15.985Z,10.98
2022-10-21T14:25:44.090Z,10.75
2022-10-21T14:28:14.146Z,10.78
2022-10-21T14:30:42.927Z,10.76
2022-10-21T14:33:18.154Z,10.55
2022-10-21T14:36:15.097Z,10.44
2022-10-21T14:38:52.009Z,10.44
2022-10-21T14:41:27.139Z,10.17
2022-10-21T14:43:58.564Z,10.10
2022-10-21T14:46:26.279Z,9.95
2022-10-21T14:49:04.123Z,9.82
2022-10-21T14:51:38.010Z,9.71
2022-10-21T14:54:07.622Z,9.61
2022-10-21T14:56:42.964Z,9.43
2022-10-21T14:59:25.513Z,9.37
2022-10-21T15:01:53.529Z,9.31
2022-10-21T15:04:50.713Z,9.18
2022-10-21T15:07:31.799Z,9.11
2022-10-21T15:10:14.563Z,9.00
2022-10-21T15:12:52.950Z,8.99
2022-10-21T15:15:54.171Z,8.87
2022-10-21T15:18:27.166Z,8.79
2022-10-21T15:21:05.420Z,8.77
2022-10-21T15:23:37.115Z,8.83
2022-10-21T15:26:15.090Z,8.79
2022-10-21T15:28:43.554Z,8.68
2022-10-21T15:31:17.664Z,8.64
2022-10-21T15:33:45.349Z,8.57
2022-10-21T15:36:13.340Z,8.50
2022-10-21T15:38:47.842Z,8.41
2022-10-21T15:41:23.633Z,8.40
2022-10-21T15:44:27.906Z,8.35
2022-10-21T15:46:58.496Z,8.27
2022-10-21T15:49:38.773Z,8.26
2022-10-21T15:52:06.647Z,8.34
2022-10-21T15:54:34.674Z,8.24
2022-10-21T15:57:11.906Z,8.20
2022-10-21T15:59:41.979Z,8.06
2022-10-21T16:02:16.349Z,7.98
2022-10-21T16:04:45.981Z,7.91
2022-10-21T16:07:22.701Z,7.93
2022-10-21T16:09:53.226Z,7.84
2022-10-21T16:12:21.994Z,7.81
2022-10-21T16:14:50.018Z,7.75
2022-10-21T16:17:18.787Z,7.73
2022-10-21T16:19:46.648Z,7.69
2022-10-21T16:22:21.271Z,7.65
2022-10-21T16:24:52.621Z,7.60
2022-10-21T16:27:30.935Z,7.58
2022-10-21T16:30:25.952Z,7.57
2022-10-21T16:32:55.742Z,7.53
2022-10-21T16:35:24.642Z,7.49
2022-10-21T16:37:57.576Z,7.48
2022-10-21T16:40:29.289Z,7.40
2022-10-21T16:42:57.138Z,7.36
2022-10-21T16:45:29.769Z,7.32
2022-10-21T16:48:00.512Z,7.34
2022-10-21T16:50:40.544Z,7.30
2022-10-21T16:53:14.035Z,7.25
2022-10-21T16:55:44.399Z,7.31
2022-10-21T16:58:12.833Z,7.24
2022-10-21T17:00:42.257Z,7.10
2022-10-21T17:03:21.148Z,7.11
2022-10-21T17:05:52.922Z,7.12
2022-10-21T17:08:20.878Z,7.01
2022-10-21T17:10:48.997Z,7.02
2022-10-21T17:13:16.783Z,7.04
2022-10-21T17:15:45.167Z,7.01
2022-10-21T17:18:15.697Z,6.93
2022-10-21T17:20:46.139Z,6.85
2022-10-21T17:23:14.691Z,6.82
2022-10-21T17:25:45.068Z,6.73
2022-10-21T17:28:12.723Z,6.78
2022-10-21T17:30:41.890Z,6.76
2022-10-21T17:33:14.121Z,6.69
2022-10-21T17:35:42.384Z,6.66
2022-10-21T17:38:10.254Z,6.56
2022-10-21T17:40:38.042Z,6.52
2022-10-21T17:43:05.992Z,6.54
2022-10-21T17:45:34.304Z,6.50
2022-10-21T17:48:03.113Z,6.45
2022-10-21T17:50:33.047Z,6.45
2022-10-21T17:53:00.926Z,6.42
2022-10-21T17:55:28.656Z,6.30
2022-10-21T17:57:57.266Z,6.33
2022-10-21T18:00:24.926Z,6.26
2022-10-21T18:02:52.803Z,6.27
2022-10-21T18:05:20.750Z,6.25
2022-10-21T18:07:49.163Z,6.22
2022-10-21T18:10:18.148Z,6.24
2022-10-21T18:12:47.140Z,6.28
2022-10-21T18:15:17.789Z,6.32
2022-10-21T18:17:45.378Z,6.26
2022-10-21T18:20:14.117Z,6.24
2022-10-21T18:22:42.325Z,6.22
2022-10-21T18:25:14.293Z,6.28
2022-10-21T18:30:18.091Z,6.19
2022-10-21T18:32:47.114Z,6.21
2022-10-21T18:35:16.158Z,6.19
2022-10-21T18:37:44.732Z,6.16
2022-10-21T18:40:12.874Z,6.12
2022-10-21T18:42:40.662Z,6.19
2022-10-21T18:45:10.042Z,6.11
2022-10-21T18:47:38.778Z,6.05
2022-10-21T18:50:10.424Z,6.02
2022-10-21T18:52:39.195Z,5.98
2022-10-21T18:55:07.877Z,5.97
2022-10-21T18:57:39.980Z,5.91
2022-10-21T19:00:09.560Z,5.89
2022-10-21T19:02:40.602Z,5.92
2022-10-21T19:05:11.995Z,5.82
2022-10-21T19:07:39.861Z,5.74
2022-10-21T19:10:08.193Z,5.75
2022-10-21T19:12:37.173Z,5.77
2022-10-21T19:15:08.544Z,5.71
2022-10-21T19:17:39.899Z,5.76
2022-10-21T19:20:09.741Z,5.81
2022-10-21T19:22:37.566Z,5.80
2022-10-21T19:25:06.776Z,5.78
2022-10-21T19:27:35.180Z,5.74
2022-10-21T19:30:03.203Z,5.65
2022-10-21T19:32:31.225Z,5.69
2022-10-21T19:34:59.392Z,5.59
2022-10-21T19:37:27.096Z,5.60
2022-10-21T19:39:55.279Z,5.61
2022-10-21T19:42:23.850Z,5.62
2022-10-21T19:44:52.266Z,5.60
2022-10-21T19:47:20.044Z,5.59
2022-10-21T19:49:50.664Z,5.63
2022-10-21T19:52:21.289Z,5.51
2022-10-21T19:54:53.066Z,5.48
2022-10-21T19:57:23.545Z,5.47
2022-10-21T19:59:51.231Z,5.45
2022-10-21T20:02:20.241Z,5.48
2022-10-21T20:04:47.790Z,5.41
2022-10-21T20:07:15.681Z,5.45
2022-10-21T20:09:43.589Z,5.40
2022-10-21T20:12:11.398Z,5.34
2022-10-21T20:14:38.980Z,5.32
2022-10-21T20:17:06.681Z,5.34
2022-10-21T20:19:34.245Z,5.39
2022-10-21T20:22:02.089Z,5.40
2022-10-21T20:24:30.324Z,5.36
2022-10-21T20:27:01.219Z,5.39
2022-10-21T20:29:30.250Z,5.37
2022-10-21T20:31:59.029Z,5.36
2022-10-21T20:34:27.205Z,5.34
2022-10-21T20:36:54.655Z,5.37
2022-10-21T20:39:22.537Z,5.36
2022-10-21T20:41:50.045Z,5.25
2022-10-21T20:44:17.801Z,5.28
2022-10-21T20:46:46.129Z,5.28
2022-10-21T20:49:14.777Z,5.20
2022-10-21T20:51:43.050Z,5.20
2022-10-21T20:54:19.011Z,5.21
2022-10-21T20:56:47.000Z,5.20
2022-10-21T20:59:15.774Z,5.24
2022-10-21T21:01:46.587Z,5.25
2022-10-21T21:04:16.698Z,5.22
2022-10-21T21:06:46.387Z,5.24
2022-10-21T21:09:33.590Z,5.19
2022-10-21T21:12:04.020Z,5.15
2022-10-21T21:14:32.374Z,5.14
2022-10-21T21:17:03.630Z,5.15
2022-10-21T21:19:33.134Z,5.17
2022-10-21T21:22:00.753Z,5.14
2022-10-21T21:24:28.418Z,5.12
2022-10-21T21:26:56.121Z,5.20
2022-10-21T21:29:24.501Z,5.07
2022-10-21T21:31:52.184Z,5.21
2022-10-21T21:34:19.870Z,5.18
2022-10-21T21:36:47.583Z,5.23
2022-10-21T21:39:18.238Z,5.26
2022-10-21T21:41:46.527Z,5.33
2022-10-21T21:44:14.264Z,5.38
2022-10-21T21:46:42.479Z,5.40
2022-10-21T21:49:10.331Z,5.37
2022-10-21T21:51:38.078Z,5.46
2022-10-21T21:54:07.939Z,5.46
2022-10-21T21:56:36.478Z,5.44
2022-10-21T21:59:04.661Z,5.39
2022-10-21T22:01:34.674Z,5.44
2022-10-21T22:04:03.737Z,5.40
2022-10-21T22:06:35.022Z,5.41
2022-10-21T22:09:10.033Z,5.39
2022-10-21T22:11:39.379Z,5.40
2022-10-21T22:14:08.725Z,5.40
2022-10-21T22:16:36.889Z,5.33
2022-10-21T22:19:05.952Z,5.33
2022-10-21T22:21:34.459Z,5.36
2022-10-21T22:24:02.155Z,5.26
2022-10-21T22:26:30.261Z,5.21
2022-10-21T22:28:57.929Z,5.24
2022-10-21T22:31:29.331Z,5.24
2022-10-21T22:34:01.344Z,5.21
2022-10-21T22:36:29.150Z,5.10
2022-10-21T22:38:59.385Z,5.21
2022-10-21T22:41:27.284Z,5.18
2022-10-21T22:43:55.891Z,5.15
2022-10-21T22:46:39.415Z,5.18
2022-10-21T22:49:07.099Z,5.12
2022-10-21T22:51:35.490Z,5.11
2022-10-21T22:54:03.302Z,5.03
2022-10-21T22:56:32.211Z,5.04
2022-10-21T22:59:01.370Z,5.13
2022-10-21T23:01:30.644Z,4.98
2022-10-21T23:04:02.987Z,5.06
2022-10-21T23:06:32.130Z,4.95
2022-10-21T23:09:02.424Z,4.91
2022-10-21T23:11:30.235Z,4.84
2022-10-21T23:14:08.846Z,4.74
2022-10-21T23:16:37.671Z,4.71
2022-10-21T23:19:07.560Z,4.78
2022-10-21T23:21:36.730Z,4.79
2022-10-21T23:24:06.516Z,4.76
2022-10-21T23:26:35.953Z,4.77
2022-10-21T23:29:04.293Z,4.83
2022-10-21T23:31:31.917Z,4.79
2022-10-21T23:33:59.417Z,4.69
2022-10-21T23:36:27.204Z,4.77
2022-10-21T23:38:57.433Z,4.76
2022-10-21T23:41:25.103Z,4.88
2022-10-21T23:43:56.082Z,4.82
2022-10-21T23:46:24.083Z,4.77
2022-10-21T23:48:51.659Z,4.80
2022-10-21T23:51:20.290Z,4.78
2022-10-21T23:53:48.106Z,4.78
2022-10-21T23:56:15.673Z,4.86
2022-10-21T23:58:43.232Z,4.77
